Terminal Aerodrome Forecast
Issued by NWS Greer, SC

Home | Current Version | Previous Version | Text Only | Print | Product List | Glossary On
Versions: 1 2 3 4 5 6 7 8 9 10 11 12 13
371
FTUS42 KGSP 131724
TAFGSP
TAF
KGSP 131724Z 1318/1418 22010G15KT P6SM SKC
     FM140000 24010KT P6SM FEW250
     FM141200 26006KT P6SM FEW250=

USA.gov is the U.S. government's official web portal to all federal, state and local government web resources and services.